sensor_id;sensor_type;location;lat;lon;timestamp;P1;durP1;ratioP1;P2;durP2;ratioP2
22711;SDS011;11523;50.390;8.072;2023-03-12T00:00:51;14.95;;;9.10;;
22711;SDS011;11523;50.390;8.072;2023-03-12T00:03:17;13.63;;;8.93;;
22711;SDS011;11523;50.390;8.072;2023-03-12T00:05:43;13.35;;;8.80;;
22711;SDS011;11523;50.390;8.072;2023-03-12T00:08:09;15.65;;;8.73;;
22711;SDS011;11523;50.390;8.072;2023-03-12T00:10:37;12.93;;;8.60;;
22711;SDS011;11523;50.390;8.072;2023-03-12T00:13:03;12.18;;;8.43;;
22711;SDS011;11523;50.390;8.072;2023-03-12T00:15:29;17.52;;;9.48;;
22711;SDS011;11523;50.390;8.072;2023-03-12T00:17:55;14.50;;;10.13;;
22711;SDS011;11523;50.390;8.072;2023-03-12T00:20:20;14.55;;;10.35;;
22711;SDS011;11523;50.390;8.072;2023-03-12T00:22:47;12.60;;;8.98;;
22711;SDS011;11523;50.390;8.072;2023-03-12T00:25:14;18.23;;;9.77;;
22711;SDS011;11523;50.390;8.072;2023-03-12T00:27:40;17.05;;;8.88;;
22711;SDS011;11523;50.390;8.072;2023-03-12T00:30:07;14.70;;;10.13;;
22711;SDS011;11523;50.390;8.072;2023-03-12T00:32:34;17.55;;;11.40;;
22711;SDS011;11523;50.390;8.072;2023-03-12T00:35:00;15.93;;;10.60;;
22711;SDS011;11523;50.390;8.072;2023-03-12T00:37:26;15.85;;;10.15;;
22711;SDS011;11523;50.390;8.072;2023-03-12T00:39:52;20.15;;;12.40;;
22711;SDS011;11523;50.390;8.072;2023-03-12T00:42:18;17.08;;;10.70;;
22711;SDS011;11523;50.390;8.072;2023-03-12T00:44:44;18.48;;;10.32;;
22711;SDS011;11523;50.390;8.072;2023-03-12T00:47:10;20.17;;;10.07;;
22711;SDS011;11523;50.390;8.072;2023-03-12T00:49:36;15.02;;;9.80;;
22711;SDS011;11523;50.390;8.072;2023-03-12T00:52:02;15.20;;;10.25;;
22711;SDS011;11523;50.390;8.072;2023-03-12T00:54:28;18.75;;;11.15;;
22711;SDS011;11523;50.390;8.072;2023-03-12T00:56:54;15.95;;;10.65;;
22711;SDS011;11523;50.390;8.072;2023-03-12T00:59:20;14.25;;;9.82;;
22711;SDS011;11523;50.390;8.072;2023-03-12T01:01:46;18.67;;;10.75;;
22711;SDS011;11523;50.390;8.072;2023-03-12T01:04:12;17.23;;;11.20;;
22711;SDS011;11523;50.390;8.072;2023-03-12T01:06:38;15.93;;;10.45;;
22711;SDS011;11523;50.390;8.072;2023-03-12T01:09:05;16.77;;;10.48;;
22711;SDS011;11523;50.390;8.072;2023-03-12T01:11:31;19.83;;;11.05;;
22711;SDS011;11523;50.390;8.072;2023-03-12T01:13:58;14.77;;;10.10;;
22711;SDS011;11523;50.390;8.072;2023-03-12T01:16:24;17.25;;;10.57;;
22711;SDS011;11523;50.390;8.072;2023-03-12T01:18:52;15.95;;;10.77;;
22711;SDS011;11523;50.390;8.072;2023-03-12T01:21:18;17.02;;;10.73;;
22711;SDS011;11523;50.390;8.072;2023-03-12T01:23:44;16.45;;;10.55;;
22711;SDS011;11523;50.390;8.072;2023-03-12T01:26:10;15.50;;;9.95;;
22711;SDS011;11523;50.390;8.072;2023-03-12T01:28:36;14.70;;;10.23;;
22711;SDS011;11523;50.390;8.072;2023-03-12T01:31:08;22.90;;;10.25;;
22711;SDS011;11523;50.390;8.072;2023-03-12T01:33:35;12.52;;;8.38;;
22711;SDS011;11523;50.390;8.072;2023-03-12T01:36:01;15.60;;;9.23;;
22711;SDS011;11523;50.390;8.072;2023-03-12T01:38:27;16.13;;;10.20;;
22711;SDS011;11523;50.390;8.072;2023-03-12T01:40:53;15.52;;;9.77;;
22711;SDS011;11523;50.390;8.072;2023-03-12T01:43:29;13.85;;;8.90;;
22711;SDS011;11523;50.390;8.072;2023-03-12T01:46:03;14.55;;;9.90;;
22711;SDS011;11523;50.390;8.072;2023-03-12T01:49:13;15.45;;;9.88;;
22711;SDS011;11523;50.390;8.072;2023-03-12T01:51:19;15.48;;;10.20;;
22711;SDS011;11523;50.390;8.072;2023-03-12T01:53:46;14.82;;;10.13;;
22711;SDS011;11523;50.390;8.072;2023-03-12T01:56:14;15.43;;;9.98;;
22711;SDS011;11523;50.390;8.072;2023-03-12T01:58:42;16.80;;;9.95;;
22711;SDS011;11523;50.390;8.072;2023-03-12T02:01:09;15.77;;;9.73;;
22711;SDS011;11523;50.390;8.072;2023-03-12T02:03:35;12.98;;;9.00;;
22711;SDS011;11523;50.390;8.072;2023-03-12T02:06:02;17.88;;;10.10;;
22711;SDS011;11523;50.390;8.072;2023-03-12T02:08:30;18.67;;;9.13;;
22711;SDS011;11523;50.390;8.072;2023-03-12T02:11:00;19.23;;;11.00;;
22711;SDS011;11523;50.390;8.072;2023-03-12T02:13:26;17.92;;;10.77;;
22711;SDS011;11523;50.390;8.072;2023-03-12T02:15:52;14.38;;;10.23;;
22711;SDS011;11523;50.390;8.072;2023-03-12T02:18:18;19.13;;;11.43;;
22711;SDS011;11523;50.390;8.072;2023-03-12T02:20:55;16.55;;;11.20;;
22711;SDS011;11523;50.390;8.072;2023-03-12T02:23:31;19.50;;;11.50;;
22711;SDS011;11523;50.390;8.072;2023-03-12T02:25:59;16.08;;;9.70;;
22711;SDS011;11523;50.390;8.072;2023-03-12T02:28:27;13.63;;;9.48;;
22711;SDS011;11523;50.390;8.072;2023-03-12T02:30:56;14.38;;;10.20;;
22711;SDS011;11523;50.390;8.072;2023-03-12T02:33:23;15.88;;;9.73;;
22711;SDS011;11523;50.390;8.072;2023-03-12T02:35:50;16.85;;;9.65;;
22711;SDS011;11523;50.390;8.072;2023-03-12T02:41:03;17.13;;;10.40;;
22711;SDS011;11523;50.390;8.072;2023-03-12T02:43:30;15.88;;;9.70;;
22711;SDS011;11523;50.390;8.072;2023-03-12T02:45:56;17.35;;;9.85;;
22711;SDS011;11523;50.390;8.072;2023-03-12T02:48:22;15.02;;;9.10;;
22711;SDS011;11523;50.390;8.072;2023-03-12T02:50:47;14.32;;;9.32;;
22711;SDS011;11523;50.390;8.072;2023-03-12T02:53:13;14.95;;;9.88;;
22711;SDS011;11523;50.390;8.072;2023-03-12T02:55:39;14.80;;;9.35;;
22711;SDS011;11523;50.390;8.072;2023-03-12T02:58:05;16.02;;;9.05;;
22711;SDS011;11523;50.390;8.072;2023-03-12T03:00:31;11.25;;;8.35;;
22711;SDS011;11523;50.390;8.072;2023-03-12T03:02:58;11.30;;;8.00;;
22711;SDS011;11523;50.390;8.072;2023-03-12T03:05:24;13.70;;;8.15;;
22711;SDS011;11523;50.390;8.072;2023-03-12T03:07:50;10.73;;;7.20;;
22711;SDS011;11523;50.390;8.072;2023-03-12T03:10:16;12.68;;;7.55;;
22711;SDS011;11523;50.390;8.072;2023-03-12T03:12:42;12.20;;;7.35;;
22711;SDS011;11523;50.390;8.072;2023-03-12T03:15:08;11.15;;;7.63;;
22711;SDS011;11523;50.390;8.072;2023-03-12T03:17:35;10.00;;;7.72;;
22711;SDS011;11523;50.390;8.072;2023-03-12T03:20:01;15.05;;;7.80;;
22711;SDS011;11523;50.390;8.072;2023-03-12T03:22:31;11.65;;;8.00;;
22711;SDS011;11523;50.390;8.072;2023-03-12T03:24:56;13.95;;;8.00;;
22711;SDS011;11523;50.390;8.072;2023-03-12T03:27:23;14.25;;;7.45;;
22711;SDS011;11523;50.390;8.072;2023-03-12T03:29:49;14.55;;;8.15;;
22711;SDS011;11523;50.390;8.072;2023-03-12T03:32:15;11.88;;;7.97;;
22711;SDS011;11523;50.390;8.072;2023-03-12T03:34:41;13.43;;;8.02;;
22711;SDS011;11523;50.390;8.072;2023-03-12T03:37:07;11.02;;;7.78;;
22711;SDS011;11523;50.390;8.072;2023-03-12T03:39:33;10.80;;;7.50;;
22711;SDS011;11523;50.390;8.072;2023-03-12T03:41:59;10.27;;;8.18;;
22711;SDS011;11523;50.390;8.072;2023-03-12T03:44:25;16.25;;;8.48;;
22711;SDS011;11523;50.390;8.072;2023-03-12T03:46:51;10.50;;;7.95;;
22711;SDS011;11523;50.390;8.072;2023-03-12T03:49:19;14.35;;;7.97;;
22711;SDS011;11523;50.390;8.072;2023-03-12T03:51:45;15.68;;;8.05;;
22711;SDS011;11523;50.390;8.072;2023-03-12T03:54:11;13.00;;;8.57;;
22711;SDS011;11523;50.390;8.072;2023-03-12T03:56:37;11.15;;;8.48;;
22711;SDS011;11523;50.390;8.072;2023-03-12T03:59:03;13.77;;;9.00;;
22711;SDS011;11523;50.390;8.072;2023-03-12T04:01:29;13.07;;;8.68;;
22711;SDS011;11523;50.390;8.072;2023-03-12T04:04:02;16.00;;;9.65;;
22711;SDS011;11523;50.390;8.072;2023-03-12T04:06:28;13.88;;;9.23;;
22711;SDS011;11523;50.390;8.072;2023-03-12T04:08:55;16.65;;;10.25;;
22711;SDS011;11523;50.390;8.072;2023-03-12T04:11:21;14.07;;;9.40;;
22711;SDS011;11523;50.390;8.072;2023-03-12T04:13:47;16.27;;;9.60;;
22711;SDS011;11523;50.390;8.072;2023-03-12T04:16:14;17.83;;;9.80;;
22711;SDS011;11523;50.390;8.072;2023-03-12T04:18:40;14.13;;;9.60;;
22711;SDS011;11523;50.390;8.072;2023-03-12T04:21:08;16.98;;;10.07;;
22711;SDS011;11523;50.390;8.072;2023-03-12T04:23:34;16.50;;;9.02;;
22711;SDS011;11523;50.390;8.072;2023-03-12T04:26:00;14.27;;;9.02;;
22711;SDS011;11523;50.390;8.072;2023-03-12T04:28:26;14.80;;;9.48;;
22711;SDS011;11523;50.390;8.072;2023-03-12T04:30:53;15.07;;;9.27;;
22711;SDS011;11523;50.390;8.072;2023-03-12T04:33:19;15.00;;;9.20;;
22711;SDS011;11523;50.390;8.072;2023-03-12T04:35:51;13.07;;;9.05;;
22711;SDS011;11523;50.390;8.072;2023-03-12T04:38:18;13.90;;;9.48;;
22711;SDS011;11523;50.390;8.072;2023-03-12T04:40:57;10.85;;;6.97;;
22711;SDS011;11523;50.390;8.072;2023-03-12T04:43:24;12.35;;;8.77;;
22711;SDS011;11523;50.390;8.072;2023-03-12T04:45:50;15.77;;;9.93;;
22711;SDS011;11523;50.390;8.072;2023-03-12T04:48:15;15.57;;;9.45;;
22711;SDS011;11523;50.390;8.072;2023-03-12T04:50:41;15.48;;;8.88;;
22711;SDS011;11523;50.390;8.072;2023-03-12T04:53:08;13.90;;;9.75;;
22711;SDS011;11523;50.390;8.072;2023-03-12T04:55:34;16.08;;;9.80;;
22711;SDS011;11523;50.390;8.072;2023-03-12T04:58:00;18.65;;;9.27;;
22711;SDS011;11523;50.390;8.072;2023-03-12T05:00:26;15.77;;;9.70;;
22711;SDS011;11523;50.390;8.072;2023-03-12T05:02:52;13.90;;;9.73;;
22711;SDS011;11523;50.390;8.072;2023-03-12T05:05:18;12.75;;;8.80;;
22711;SDS011;11523;50.390;8.072;2023-03-12T05:07:44;14.40;;;8.80;;
22711;SDS011;11523;50.390;8.072;2023-03-12T05:10:10;12.90;;;8.25;;
22711;SDS011;11523;50.390;8.072;2023-03-12T05:12:36;13.23;;;8.27;;
22711;SDS011;11523;50.390;8.072;2023-03-12T05:15:02;12.60;;;8.60;;
22711;SDS011;11523;50.390;8.072;2023-03-12T05:17:28;11.55;;;7.65;;
22711;SDS011;11523;50.390;8.072;2023-03-12T05:19:54;12.05;;;7.43;;
22711;SDS011;11523;50.390;8.072;2023-03-12T05:22:20;18.80;;;8.88;;
22711;SDS011;11523;50.390;8.072;2023-03-12T05:24:46;12.73;;;8.43;;
22711;SDS011;11523;50.390;8.072;2023-03-12T05:27:12;16.45;;;8.85;;
22711;SDS011;11523;50.390;8.072;2023-03-12T05:29:38;12.43;;;7.85;;
22711;SDS011;11523;50.390;8.072;2023-03-12T05:32:04;11.93;;;7.55;;
22711;SDS011;11523;50.390;8.072;2023-03-12T05:34:31;13.15;;;8.45;;
22711;SDS011;11523;50.390;8.072;2023-03-12T05:36:57;15.63;;;9.15;;
22711;SDS011;11523;50.390;8.072;2023-03-12T05:39:23;13.40;;;9.27;;
22711;SDS011;11523;50.390;8.072;2023-03-12T05:41:49;15.07;;;8.55;;
22711;SDS011;11523;50.390;8.072;2023-03-12T05:44:17;15.90;;;9.57;;
22711;SDS011;11523;50.390;8.072;2023-03-12T05:46:43;13.90;;;9.02;;
22711;SDS011;11523;50.390;8.072;2023-03-12T05:49:09;16.65;;;9.38;;
22711;SDS011;11523;50.390;8.072;2023-03-12T05:51:35;14.77;;;9.80;;
22711;SDS011;11523;50.390;8.072;2023-03-12T05:54:01;14.43;;;8.77;;
22711;SDS011;11523;50.390;8.072;2023-03-12T05:56:28;14.68;;;9.10;;
22711;SDS011;11523;50.390;8.072;2023-03-12T05:58:54;16.48;;;9.00;;
22711;SDS011;11523;50.390;8.072;2023-03-12T06:01:21;16.58;;;9.38;;
22711;SDS011;11523;50.390;8.072;2023-03-12T06:03:47;14.15;;;9.45;;
22711;SDS011;11523;50.390;8.072;2023-03-12T06:06:14;19.00;;;10.13;;
22711;SDS011;11523;50.390;8.072;2023-03-12T06:08:40;16.70;;;9.35;;
22711;SDS011;11523;50.390;8.072;2023-03-12T06:11:06;18.65;;;9.93;;
22711;SDS011;11523;50.390;8.072;2023-03-12T06:13:32;12.10;;;8.80;;
22711;SDS011;11523;50.390;8.072;2023-03-12T06:16:04;14.35;;;8.95;;
22711;SDS011;11523;50.390;8.072;2023-03-12T06:18:31;15.75;;;9.48;;
22711;SDS011;11523;50.390;8.072;2023-03-12T06:21:11;13.45;;;8.48;;
22711;SDS011;11523;50.390;8.072;2023-03-12T06:23:37;16.63;;;9.07;;
22711;SDS011;11523;50.390;8.072;2023-03-12T06:26:03;18.23;;;9.02;;
22711;SDS011;11523;50.390;8.072;2023-03-12T06:28:30;15.25;;;9.32;;
22711;SDS011;11523;50.390;8.072;2023-03-12T06:30:56;13.85;;;8.70;;
22711;SDS011;11523;50.390;8.072;2023-03-12T06:33:22;16.60;;;8.20;;
22711;SDS011;11523;50.390;8.072;2023-03-12T06:35:48;16.40;;;8.30;;
22711;SDS011;11523;50.390;8.072;2023-03-12T06:38:14;17.63;;;9.10;;
22711;SDS011;11523;50.390;8.072;2023-03-12T06:40:40;16.90;;;9.20;;
22711;SDS011;11523;50.390;8.072;2023-03-12T06:43:06;12.27;;;8.38;;
22711;SDS011;11523;50.390;8.072;2023-03-12T06:45:36;15.73;;;8.77;;
22711;SDS011;11523;50.390;8.072;2023-03-12T06:48:02;13.55;;;8.45;;
22711;SDS011;11523;50.390;8.072;2023-03-12T06:50:28;13.02;;;8.85;;
22711;SDS011;11523;50.390;8.072;2023-03-12T06:52:54;12.27;;;9.18;;
22711;SDS011;11523;50.390;8.072;2023-03-12T06:55:19;15.10;;;10.07;;
22711;SDS011;11523;50.390;8.072;2023-03-12T06:57:45;17.75;;;10.13;;
22711;SDS011;11523;50.390;8.072;2023-03-12T07:00:11;14.50;;;9.65;;
22711;SDS011;11523;50.390;8.072;2023-03-12T07:02:37;16.08;;;9.65;;
22711;SDS011;11523;50.390;8.072;2023-03-12T07:05:03;14.88;;;10.15;;
22711;SDS011;11523;50.390;8.072;2023-03-12T07:07:29;16.98;;;9.65;;
22711;SDS011;11523;50.390;8.072;2023-03-12T07:09:55;12.98;;;8.60;;
22711;SDS011;11523;50.390;8.072;2023-03-12T07:12:21;16.65;;;9.35;;
22711;SDS011;11523;50.390;8.072;2023-03-12T07:14:47;11.00;;;8.15;;
22711;SDS011;11523;50.390;8.072;2023-03-12T07:17:13;14.07;;;7.93;;
22711;SDS011;11523;50.390;8.072;2023-03-12T07:19:39;14.70;;;7.93;;
22711;SDS011;11523;50.390;8.072;2023-03-12T07:22:05;13.48;;;9.05;;
22711;SDS011;11523;50.390;8.072;2023-03-12T07:24:31;11.80;;;8.55;;
22711;SDS011;11523;50.390;8.072;2023-03-12T07:26:57;13.85;;;8.55;;
22711;SDS011;11523;50.390;8.072;2023-03-12T07:29:23;12.80;;;7.53;;
22711;SDS011;11523;50.390;8.072;2023-03-12T07:31:49;11.18;;;6.45;;
22711;SDS011;11523;50.390;8.072;2023-03-12T07:34:15;12.63;;;7.18;;
22711;SDS011;11523;50.390;8.072;2023-03-12T07:36:40;13.52;;;7.35;;
22711;SDS011;11523;50.390;8.072;2023-03-12T07:39:07;10.88;;;6.57;;
22711;SDS011;11523;50.390;8.072;2023-03-12T07:41:32;13.05;;;7.40;;
22711;SDS011;11523;50.390;8.072;2023-03-12T07:44:01;11.85;;;6.65;;
22711;SDS011;11523;50.390;8.072;2023-03-12T07:46:27;10.57;;;6.28;;
22711;SDS011;11523;50.390;8.072;2023-03-12T07:48:53;9.00;;;6.80;;
22711;SDS011;11523;50.390;8.072;2023-03-12T07:51:19;10.32;;;7.00;;
22711;SDS011;11523;50.390;8.072;2023-03-12T07:53:44;9.52;;;6.15;;
22711;SDS011;11523;50.390;8.072;2023-03-12T07:56:10;11.35;;;6.55;;
22711;SDS011;11523;50.390;8.072;2023-03-12T07:58:36;11.20;;;7.80;;
22711;SDS011;11523;50.390;8.072;2023-03-12T08:01:03;13.00;;;8.60;;
22711;SDS011;11523;50.390;8.072;2023-03-12T08:03:30;11.80;;;6.82;;
22711;SDS011;11523;50.390;8.072;2023-03-12T08:05:59;12.32;;;7.47;;
22711;SDS011;11523;50.390;8.072;2023-03-12T08:08:26;10.50;;;7.13;;
22711;SDS011;11523;50.390;8.072;2023-03-12T08:10:52;15.02;;;7.18;;
22711;SDS011;11523;50.390;8.072;2023-03-12T08:13:18;9.68;;;6.38;;
22711;SDS011;11523;50.390;8.072;2023-03-12T08:15:44;12.95;;;6.38;;
22711;SDS011;11523;50.390;8.072;2023-03-12T08:18:10;6.68;;;5.55;;
22711;SDS011;11523;50.390;8.072;2023-03-12T08:20:36;14.23;;;6.13;;
22711;SDS011;11523;50.390;8.072;2023-03-12T08:23:02;9.45;;;6.00;;
22711;SDS011;11523;50.390;8.072;2023-03-12T08:25:28;11.80;;;6.22;;
22711;SDS011;11523;50.390;8.072;2023-03-12T08:27:54;9.60;;;6.53;;
22711;SDS011;11523;50.390;8.072;2023-03-12T08:30:19;9.38;;;6.20;;
22711;SDS011;11523;50.390;8.072;2023-03-12T08:32:45;11.32;;;6.28;;
22711;SDS011;11523;50.390;8.072;2023-03-12T08:35:11;12.10;;;6.25;;
22711;SDS011;11523;50.390;8.072;2023-03-12T08:37:37;12.65;;;6.10;;
22711;SDS011;11523;50.390;8.072;2023-03-12T08:40:03;9.50;;;6.22;;
22711;SDS011;11523;50.390;8.072;2023-03-12T08:42:37;14.27;;;6.67;;
22711;SDS011;11523;50.390;8.072;2023-03-12T08:45:03;14.10;;;8.10;;
22711;SDS011;11523;50.390;8.072;2023-03-12T08:47:28;11.07;;;7.22;;
22711;SDS011;11523;50.390;8.072;2023-03-12T08:49:54;9.63;;;6.30;;
22711;SDS011;11523;50.390;8.072;2023-03-12T08:52:20;10.70;;;6.78;;
22711;SDS011;11523;50.390;8.072;2023-03-12T08:54:46;9.52;;;5.93;;
22711;SDS011;11523;50.390;8.072;2023-03-12T08:57:12;10.57;;;6.28;;
22711;SDS011;11523;50.390;8.072;2023-03-12T08:59:39;12.95;;;6.75;;
22711;SDS011;11523;50.390;8.072;2023-03-12T09:02:05;11.95;;;6.93;;
22711;SDS011;11523;50.390;8.072;2023-03-12T09:04:31;13.77;;;6.55;;
22711;SDS011;11523;50.390;8.072;2023-03-12T09:06:59;13.30;;;6.68;;
22711;SDS011;11523;50.390;8.072;2023-03-12T09:09:25;12.63;;;6.13;;
22711;SDS011;11523;50.390;8.072;2023-03-12T09:11:51;12.02;;;7.05;;
22711;SDS011;11523;50.390;8.072;2023-03-12T09:14:17;16.15;;;7.55;;
22711;SDS011;11523;50.390;8.072;2023-03-12T09:16:43;13.65;;;7.30;;
22711;SDS011;11523;50.390;8.072;2023-03-12T09:19:09;10.65;;;6.28;;
22711;SDS011;11523;50.390;8.072;2023-03-12T09:21:35;11.07;;;6.90;;
22711;SDS011;11523;50.390;8.072;2023-03-12T09:24:00;9.57;;;6.43;;
22711;SDS011;11523;50.390;8.072;2023-03-12T09:26:26;8.60;;;6.80;;
22711;SDS011;11523;50.390;8.072;2023-03-12T09:28:52;13.65;;;6.75;;
22711;SDS011;11523;50.390;8.072;2023-03-12T09:31:19;13.23;;;6.47;;
22711;SDS011;11523;50.390;8.072;2023-03-12T09:33:45;10.23;;;6.88;;
22711;SDS011;11523;50.390;8.072;2023-03-12T09:36:11;13.43;;;6.97;;
22711;SDS011;11523;50.390;8.072;2023-03-12T09:38:37;9.98;;;6.28;;
22711;SDS011;11523;50.390;8.072;2023-03-12T09:41:43;12.60;;;6.53;;
22711;SDS011;11523;50.390;8.072;2023-03-12T09:44:06;12.68;;;7.43;;
22711;SDS011;11523;50.390;8.072;2023-03-12T09:49:05;16.63;;;7.22;;
22711;SDS011;11523;50.390;8.072;2023-03-12T09:51:40;10.70;;;6.93;;
22711;SDS011;11523;50.390;8.072;2023-03-12T09:54:12;8.13;;;6.10;;
22711;SDS011;11523;50.390;8.072;2023-03-12T09:56:42;11.82;;;6.40;;
22711;SDS011;11523;50.390;8.072;2023-03-12T09:59:11;9.82;;;6.20;;
22711;SDS011;11523;50.390;8.072;2023-03-12T10:01:40;12.73;;;6.85;;
22711;SDS011;11523;50.390;8.072;2023-03-12T10:04:13;12.73;;;6.93;;
22711;SDS011;11523;50.390;8.072;2023-03-12T10:07:27;13.88;;;7.00;;
22711;SDS011;11523;50.390;8.072;2023-03-12T10:09:48;11.77;;;6.90;;
22711;SDS011;11523;50.390;8.072;2023-03-12T10:12:24;8.05;;;5.90;;
22711;SDS011;11523;50.390;8.072;2023-03-12T10:15:00;9.48;;;6.72;;
22711;SDS011;11523;50.390;8.072;2023-03-12T10:22:39;13.00;;;7.28;;
22711;SDS011;11523;50.390;8.072;2023-03-12T10:27:47;8.60;;;6.95;;
22711;SDS011;11523;50.390;8.072;2023-03-12T10:30:16;13.45;;;7.25;;
22711;SDS011;11523;50.390;8.072;2023-03-12T10:32:47;12.48;;;7.55;;
22711;SDS011;11523;50.390;8.072;2023-03-12T10:37:49;13.57;;;8.02;;
22711;SDS011;11523;50.390;8.072;2023-03-12T10:40:20;18.23;;;8.48;;
22711;SDS011;11523;50.390;8.072;2023-03-12T10:42:46;12.00;;;7.53;;
22711;SDS011;11523;50.390;8.072;2023-03-12T10:47:59;11.10;;;8.10;;
22711;SDS011;11523;50.390;8.072;2023-03-12T10:50:27;17.45;;;8.32;;
22711;SDS011;11523;50.390;8.072;2023-03-12T10:53:11;12.68;;;8.25;;
22711;SDS011;11523;50.390;8.072;2023-03-12T10:55:38;16.17;;;8.80;;
22711;SDS011;11523;50.390;8.072;2023-03-12T10:58:22;8.93;;;6.90;;
22711;SDS011;11523;50.390;8.072;2023-03-12T11:00:55;17.00;;;8.60;;
22711;SDS011;11523;50.390;8.072;2023-03-12T11:03:22;17.38;;;9.38;;
22711;SDS011;11523;50.390;8.072;2023-03-12T11:05:51;14.25;;;8.43;;
22711;SDS011;11523;50.390;8.072;2023-03-12T11:08:19;15.70;;;9.68;;
22711;SDS011;11523;50.390;8.072;2023-03-12T11:10:47;14.00;;;9.27;;
22711;SDS011;11523;50.390;8.072;2023-03-12T11:13:21;12.82;;;8.90;;
22711;SDS011;11523;50.390;8.072;2023-03-12T11:15:47;12.88;;;8.65;;
22711;SDS011;11523;50.390;8.072;2023-03-12T11:18:19;14.38;;;8.80;;
22711;SDS011;11523;50.390;8.072;2023-03-12T11:20:46;13.27;;;9.20;;
22711;SDS011;11523;50.390;8.072;2023-03-12T11:23:13;11.32;;;8.00;;
22711;SDS011;11523;50.390;8.072;2023-03-12T11:25:39;12.40;;;8.75;;
22711;SDS011;11523;50.390;8.072;2023-03-12T11:28:05;14.77;;;9.07;;
22711;SDS011;11523;50.390;8.072;2023-03-12T11:30:36;11.35;;;8.18;;
22711;SDS011;11523;50.390;8.072;2023-03-12T11:33:03;13.40;;;8.48;;
22711;SDS011;11523;50.390;8.072;2023-03-12T11:35:38;10.85;;;8.02;;
22711;SDS011;11523;50.390;8.072;2023-03-12T11:38:14;10.40;;;7.90;;
22711;SDS011;11523;50.390;8.072;2023-03-12T11:46:11;9.93;;;7.32;;
22711;SDS011;11523;50.390;8.072;2023-03-12T11:48:51;10.13;;;7.35;;
22711;SDS011;11523;50.390;8.072;2023-03-12T11:54:02;10.80;;;8.05;;
22711;SDS011;11523;50.390;8.072;2023-03-12T12:06:57;9.57;;;7.57;;
22711;SDS011;11523;50.390;8.072;2023-03-12T12:12:15;13.25;;;7.50;;
22711;SDS011;11523;50.390;8.072;2023-03-12T12:22:38;9.38;;;6.90;;
22711;SDS011;11523;50.390;8.072;2023-03-12T12:25:14;12.38;;;7.72;;
22711;SDS011;11523;50.390;8.072;2023-03-12T12:30:28;9.77;;;6.97;;
22711;SDS011;11523;50.390;8.072;2023-03-12T12:33:06;8.30;;;6.50;;
22711;SDS011;11523;50.390;8.072;2023-03-12T12:35:34;12.02;;;8.02;;
22711;SDS011;11523;50.390;8.072;2023-03-12T12:38:08;11.95;;;7.15;;
22711;SDS011;11523;50.390;8.072;2023-03-12T12:40:46;7.85;;;6.20;;
22711;SDS011;11523;50.390;8.072;2023-03-12T12:43:18;9.30;;;6.00;;
22711;SDS011;11523;50.390;8.072;2023-03-12T12:45:47;7.80;;;6.00;;
22711;SDS011;11523;50.390;8.072;2023-03-12T12:48:16;7.57;;;5.85;;
22711;SDS011;11523;50.390;8.072;2023-03-12T12:50:42;8.38;;;6.15;;
22711;SDS011;11523;50.390;8.072;2023-03-12T12:56:01;7.78;;;5.63;;
22711;SDS011;11523;50.390;8.072;2023-03-12T13:01:13;11.23;;;6.05;;
22711;SDS011;11523;50.390;8.072;2023-03-12T13:03:40;9.02;;;5.70;;
22711;SDS011;11523;50.390;8.072;2023-03-12T13:06:06;9.95;;;6.50;;
22711;SDS011;11523;50.390;8.072;2023-03-12T13:11:02;7.97;;;5.90;;
22711;SDS011;11523;50.390;8.072;2023-03-12T13:13:29;9.50;;;5.57;;
22711;SDS011;11523;50.390;8.072;2023-03-12T13:18:39;9.13;;;6.72;;
22711;SDS011;11523;50.390;8.072;2023-03-12T13:21:11;9.15;;;6.38;;
22711;SDS011;11523;50.390;8.072;2023-03-12T13:23:41;8.15;;;6.13;;
22711;SDS011;11523;50.390;8.072;2023-03-12T13:26:29;11.00;;;6.83;;
22711;SDS011;11523;50.390;8.072;2023-03-12T13:28:57;9.48;;;6.38;;
22711;SDS011;11523;50.390;8.072;2023-03-12T13:31:33;13.98;;;6.55;;
22711;SDS011;11523;50.390;8.072;2023-03-12T13:36:32;10.52;;;6.82;;
22711;SDS011;11523;50.390;8.072;2023-03-12T13:41:46;8.52;;;6.38;;
22711;SDS011;11523;50.390;8.072;2023-03-12T13:49:35;11.93;;;7.05;;
22711;SDS011;11523;50.390;8.072;2023-03-12T13:54:29;10.95;;;7.40;;
22711;SDS011;11523;50.390;8.072;2023-03-12T13:56:57;12.30;;;7.53;;
22711;SDS011;11523;50.390;8.072;2023-03-12T13:59:25;9.60;;;7.57;;
22711;SDS011;11523;50.390;8.072;2023-03-12T14:01:53;9.70;;;7.80;;
22711;SDS011;11523;50.390;8.072;2023-03-12T14:04:21;12.55;;;7.93;;
22711;SDS011;11523;50.390;8.072;2023-03-12T14:17:28;14.27;;;8.30;;
22711;SDS011;11523;50.390;8.072;2023-03-12T14:20:17;12.20;;;7.95;;
22711;SDS011;11523;50.390;8.072;2023-03-12T14:22:42;12.60;;;8.05;;
22711;SDS011;11523;50.390;8.072;2023-03-12T14:25:16;9.80;;;7.15;;
22711;SDS011;11523;50.390;8.072;2023-03-12T14:27:47;10.73;;;7.78;;
22711;SDS011;11523;50.390;8.072;2023-03-12T14:30:23;10.57;;;7.18;;
22711;SDS011;11523;50.390;8.072;2023-03-12T14:32:51;9.18;;;7.03;;
22711;SDS011;11523;50.390;8.072;2023-03-12T14:35:24;9.20;;;6.40;;
22711;SDS011;11523;50.390;8.072;2023-03-12T14:46:04;9.60;;;5.38;;
22711;SDS011;11523;50.390;8.072;2023-03-12T14:48:31;8.55;;;4.93;;
22711;SDS011;11523;50.390;8.072;2023-03-12T14:50:58;6.78;;;3.10;;
22711;SDS011;11523;50.390;8.072;2023-03-12T14:53:25;9.15;;;5.05;;
22711;SDS011;11523;50.390;8.072;2023-03-12T14:58:44;5.90;;;4.20;;
22711;SDS011;11523;50.390;8.072;2023-03-12T15:01:11;8.40;;;4.28;;
22711;SDS011;11523;50.390;8.072;2023-03-12T15:03:42;7.18;;;4.63;;
22711;SDS011;11523;50.390;8.072;2023-03-12T15:06:20;10.40;;;4.63;;
22711;SDS011;11523;50.390;8.072;2023-03-12T15:08:49;7.45;;;4.50;;
22711;SDS011;11523;50.390;8.072;2023-03-12T15:11:18;6.97;;;4.15;;
22711;SDS011;11523;50.390;8.072;2023-03-12T15:13:45;7.63;;;4.30;;
22711;SDS011;11523;50.390;8.072;2023-03-12T15:16:11;8.73;;;4.00;;
22711;SDS011;11523;50.390;8.072;2023-03-12T15:18:37;6.10;;;3.58;;
22711;SDS011;11523;50.390;8.072;2023-03-12T15:21:03;9.20;;;3.50;;
22711;SDS011;11523;50.390;8.072;2023-03-12T15:23:31;8.02;;;3.50;;
22711;SDS011;11523;50.390;8.072;2023-03-12T15:26:15;10.13;;;3.60;;
22711;SDS011;11523;50.390;8.072;2023-03-12T15:28:58;8.90;;;2.42;;
22711;SDS011;11523;50.390;8.072;2023-03-12T15:31:24;9.02;;;2.70;;
22711;SDS011;11523;50.390;8.072;2023-03-12T15:34:03;9.57;;;2.63;;
22711;SDS011;11523;50.390;8.072;2023-03-12T15:36:30;11.07;;;3.53;;
22711;SDS011;11523;50.390;8.072;2023-03-12T15:38:58;8.07;;;3.00;;
22711;SDS011;11523;50.390;8.072;2023-03-12T15:41:27;12.10;;;2.95;;
22711;SDS011;11523;50.390;8.072;2023-03-12T15:43:54;12.60;;;3.53;;
22711;SDS011;11523;50.390;8.072;2023-03-12T15:46:21;9.63;;;3.72;;
22711;SDS011;11523;50.390;8.072;2023-03-12T15:48:48;11.05;;;3.72;;
22711;SDS011;11523;50.390;8.072;2023-03-12T15:51:29;13.48;;;4.47;;
22711;SDS011;11523;50.390;8.072;2023-03-12T15:53:59;10.52;;;3.78;;
22711;SDS011;11523;50.390;8.072;2023-03-12T15:56:26;11.98;;;4.22;;
22711;SDS011;11523;50.390;8.072;2023-03-12T16:04:03;9.60;;;3.15;;
22711;SDS011;11523;50.390;8.072;2023-03-12T16:06:29;11.00;;;3.10;;
22711;SDS011;11523;50.390;8.072;2023-03-12T16:08:56;13.00;;;3.55;;
22711;SDS011;11523;50.390;8.072;2023-03-12T16:11:23;14.23;;;3.50;;
22711;SDS011;11523;50.390;8.072;2023-03-12T16:13:51;13.07;;;3.97;;
22711;SDS011;11523;50.390;8.072;2023-03-12T16:16:19;12.95;;;3.45;;
22711;SDS011;11523;50.390;8.072;2023-03-12T16:18:45;13.20;;;3.63;;
22711;SDS011;11523;50.390;8.072;2023-03-12T16:21:17;17.35;;;4.65;;